Terminal Aerodrome Forecast
Issued by NWS

Current Version | Previous Version | Text Only | Print | Product List | Glossary Off
Versions: 1 2 3 4 5 6 7 8 9 10 11 12 13 14 15 16 17 18 19 20 21 22 23 24 25 26

000
FTUS41 KILN 270809 AAA
TAFLUK
TAF AMD
KLUK 270809Z 2708/2806 00000KT 4SM BR VCSH SCT025 OVC100
      TEMPO 2708/2709 1SM TSRA BR SCT005 OVC025CB
     FM271000 00000KT P6SM SCT010 BKN060
     FM271600 VRB04KT P6SM VCSH BKN035
     FM280100 05004KT P6SM SCT040
      TEMPO 2802/2806 00000KT 5SM BR SKC=

USA.gov is the U.S. government's official web portal to all federal, state and local government web resources and services.